createdAt,value
2018-08-31T00:01:02.854Z,99.9
2018-08-31T00:02:10.072Z,99.9
2018-08-31T00:03:17.293Z,99.9
2018-08-31T00:04:24.511Z,99.9
2018-08-31T00:05:31.735Z,99.9
2018-08-31T00:06:38.953Z,99.9
2018-08-31T00:07:46.184Z,99.9
2018-08-31T00:08:53.438Z,99.9
2018-08-31T00:10:00.656Z,99.9
2018-08-31T00:11:07.869Z,99.9
2018-08-31T00:12:14.812Z,99.9
2018-08-31T00:13:22.030Z,99.9
2018-08-31T00:14:29.241Z,99.9
2018-08-31T00:15:36.473Z,99.9
2018-08-31T00:16:43.690Z,99.9
2018-08-31T00:17:50.906Z,99.9
2018-08-31T00:18:58.120Z,99.9
2018-08-31T00:20:05.333Z,99.9
2018-08-31T00:21:12.549Z,99.9
2018-08-31T00:22:19.766Z,99.9
2018-08-31T00:23:26.984Z,99.9
2018-08-31T00:24:34.193Z,99.9
2018-08-31T00:25:41.406Z,99.9
2018-08-31T00:26:48.364Z,99.9
2018-08-31T00:27:55.581Z,99.9
2018-08-31T00:29:02.813Z,99.9
2018-08-31T00:30:10.026Z,99.9
2018-08-31T00:31:16.975Z,99.9
2018-08-31T00:32:24.198Z,99.9
2018-08-31T00:33:31.407Z,99.9
2018-08-31T00:34:38.625Z,99.9
2018-08-31T00:35:45.567Z,99.9
2018-08-31T00:36:52.789Z,99.9
2018-08-31T00:38:00.015Z,99.9
2018-08-31T00:39:07.230Z,99.9
2018-08-31T00:40:14.463Z,99.9
2018-08-31T00:41:21.683Z,99.9
2018-08-31T00:42:28.911Z,99.9
2018-08-31T00:43:36.127Z,99.9
2018-08-31T00:44:43.340Z,99.9
2018-08-31T00:45:50.552Z,99.9
2018-08-31T00:46:57.770Z,99.9
2018-08-31T00:48:04.997Z,99.9
2018-08-31T00:49:12.213Z,99.9
2018-08-31T00:50:19.428Z,99.9
2018-08-31T00:51:26.379Z,99.9
2018-08-31T00:52:33.317Z,99.9
2018-08-31T00:53:40.273Z,99.9
2018-08-31T00:54:47.494Z,99.9
2018-08-31T00:55:54.703Z,99.9
2018-08-31T00:57:01.639Z,99.9
2018-08-31T00:58:08.894Z,99.9
2018-08-31T00:59:15.825Z,99.9
2018-08-31T01:00:23.037Z,99.9
2018-08-31T01:01:29.980Z,99.9
2018-08-31T01:02:37.187Z,99.9
2018-08-31T01:03:44.130Z,99.9
2018-08-31T01:04:51.354Z,99.9
2018-08-31T01:05:58.571Z,99.9
2018-08-31T01:07:05.795Z,99.9
2018-08-31T01:08:13.014Z,99.9
2018-08-31T01:09:20.239Z,99.9
2018-08-31T01:10:27.471Z,99.9
2018-08-31T01:11:34.675Z,99.9
2018-08-31T01:12:41.893Z,99.9
2018-08-31T01:13:48.825Z,99.9
2018-08-31T01:14:56.053Z,99.9
2018-08-31T01:16:03.267Z,99.9
2018-08-31T01:17:10.487Z,99.9
2018-08-31T01:18:17.699Z,99.9
2018-08-31T01:19:24.924Z,99.9
2018-08-31T01:20:32.159Z,99.9
2018-08-31T01:21:39.102Z,99.9
2018-08-31T01:22:46.040Z,99.9
2018-08-31T01:23:53.257Z,99.9
2018-08-31T01:25:00.199Z,99.9
2018-08-31T01:26:07.444Z,99.9
2018-08-31T01:27:14.382Z,99.9
2018-08-31T01:28:21.593Z,99.9
2018-08-31T01:29:28.819Z,99.9
2018-08-31T01:30:36.036Z,99.9
2018-08-31T01:31:43.257Z,99.9
2018-08-31T01:32:50.489Z,99.9
2018-08-31T01:33:57.421Z,99.9
2018-08-31T01:35:04.635Z,99.9
2018-08-31T01:36:11.865Z,99.9
2018-08-31T01:37:19.085Z,99.9
2018-08-31T01:38:26.318Z,99.9
2018-08-31T01:39:33.553Z,99.9
2018-08-31T01:40:40.766Z,99.9
2018-08-31T01:41:47.706Z,99.9
2018-08-31T01:42:54.648Z,99.9
2018-08-31T01:44:01.864Z,99.9
2018-08-31T01:45:08.808Z,99.9
2018-08-31T01:46:15.747Z,99.9
2018-08-31T01:47:22.977Z,99.9
2018-08-31T01:48:30.193Z,99.9
2018-08-31T01:49:37.421Z,99.9
2018-08-31T01:50:44.358Z,99.9
2018-08-31T01:51:51.588Z,99.9
2018-08-31T01:52:58.804Z,99.9
2018-08-31T01:54:06.028Z,99.9
2018-08-31T01:55:12.976Z,99.9
2018-08-31T01:56:19.919Z,99.9
2018-08-31T01:57:27.131Z,99.9
2018-08-31T01:58:34.086Z,99.9
2018-08-31T01:59:41.301Z,99.9
2018-08-31T02:00:48.525Z,99.9
2018-08-31T02:01:55.742Z,99.9
2018-08-31T02:03:02.965Z,99.9
2018-08-31T02:04:10.211Z,99.9
2018-08-31T02:05:17.766Z,99.9
2018-08-31T02:06:24.980Z,99.9
2018-08-31T02:07:32.198Z,99.9
2018-08-31T02:08:39.413Z,99.9
2018-08-31T02:09:46.630Z,99.9
2018-08-31T02:10:53.840Z,99.9
2018-08-31T02:12:01.063Z,99.9
2018-08-31T02:13:08.273Z,99.9
2018-08-31T02:14:15.232Z,99.9
2018-08-31T02:15:22.454Z,99.9
2018-08-31T02:16:29.411Z,99.9
2018-08-31T02:17:36.627Z,99.9
2018-08-31T02:18:43.564Z,99.9
2018-08-31T02:19:50.781Z,99.9
2018-08-31T02:20:57.997Z,99.9
2018-08-31T02:22:05.215Z,99.9
2018-08-31T02:23:12.429Z,99.9
2018-08-31T02:24:19.655Z,99.9
2018-08-31T02:25:26.871Z,99.9
2018-08-31T02:26:34.087Z,99.9
2018-08-31T02:27:41.027Z,99.9
2018-08-31T02:28:48.245Z,99.9
2018-08-31T02:29:55.466Z,99.9
2018-08-31T02:31:02.683Z,99.9
2018-08-31T02:32:09.897Z,99.9
2018-08-31T02:33:17.118Z,99.9
2018-08-31T02:34:24.066Z,99.9
2018-08-31T02:35:31.009Z,99.9
2018-08-31T02:36:38.245Z,99.9
2018-08-31T02:37:45.461Z,99.9
2018-08-31T02:38:52.674Z,99.9
2018-08-31T02:39:59.891Z,99.9
2018-08-31T02:41:06.549Z,99.9
2018-08-31T02:42:13.766Z,99.9
2018-08-31T02:43:20.979Z,99.9
2018-08-31T02:44:28.191Z,99.9
2018-08-31T02:45:35.406Z,99.9
2018-08-31T02:46:42.628Z,99.9
2018-08-31T02:47:49.844Z,99.9
2018-08-31T02:48:57.056Z,99.9
2018-08-31T02:50:04.274Z,99.9
2018-08-31T02:51:11.492Z,99.9
2018-08-31T02:52:18.449Z,99.9
2018-08-31T02:53:25.661Z,99.9
2018-08-31T02:54:32.892Z,99.9
2018-08-31T02:55:40.104Z,99.9
2018-08-31T02:56:47.334Z,99.9
2018-08-31T02:57:54.551Z,99.9
2018-08-31T02:59:01.767Z,99.9
2018-08-31T03:00:08.982Z,99.9
2018-08-31T03:01:16.199Z,99.9
2018-08-31T03:02:23.417Z,99.9
2018-08-31T03:03:30.651Z,99.9
2018-08-31T03:04:37.872Z,99.9
2018-08-31T03:05:45.164Z,99.9
2018-08-31T03:06:52.102Z,99.9
2018-08-31T03:07:59.329Z,99.9
2018-08-31T03:09:06.540Z,99.9
2018-08-31T03:10:13.485Z,99.9
2018-08-31T03:11:20.714Z,99.9
2018-08-31T03:12:27.983Z,99.9
2018-08-31T03:13:35.207Z,99.9
2018-08-31T03:14:42.420Z,99.9
2018-08-31T03:15:49.367Z,99.9
2018-08-31T03:16:56.582Z,99.9
2018-08-31T03:18:03.808Z,99.9
2018-08-31T03:19:11.018Z,99.9
2018-08-31T03:20:18.235Z,99.9
2018-08-31T03:21:24.977Z,99.9
2018-08-31T03:22:31.881Z,99.9
2018-08-31T03:23:39.102Z,99.9
2018-08-31T03:24:46.321Z,99.9
2018-08-31T03:25:53.538Z,99.9
2018-08-31T03:27:00.770Z,99.9
2018-08-31T03:28:07.997Z,99.9
2018-08-31T03:29:15.229Z,99.9
2018-08-31T03:30:22.447Z,99.9
2018-08-31T03:31:29.663Z,99.9
2018-08-31T03:32:36.875Z,99.9
2018-08-31T03:33:44.088Z,99.9
2018-08-31T03:34:51.311Z,99.9
2018-08-31T03:35:58.527Z,99.9
2018-08-31T03:37:05.814Z,99.9
2018-08-31T03:38:13.553Z,99.9
2018-08-31T03:39:20.772Z,99.9
2018-08-31T03:40:27.996Z,99.9
2018-08-31T03:41:34.944Z,99.9
2018-08-31T03:42:42.162Z,99.9
2018-08-31T03:43:49.381Z,99.9
2018-08-31T03:44:56.594Z,99.9
2018-08-31T03:46:03.806Z,99.9
2018-08-31T03:47:11.028Z,99.9
2018-08-31T03:48:18.241Z,99.9
2018-08-31T03:49:25.456Z,99.9
2018-08-31T03:50:32.669Z,99.9
2018-08-31T03:51:39.899Z,99.9
2018-08-31T03:52:47.107Z,99.9
2018-08-31T03:53:54.350Z,99.9
2018-08-31T03:55:01.309Z,99.9
2018-08-31T03:56:08.530Z,99.9
2018-08-31T03:57:15.745Z,99.9
2018-08-31T03:58:22.958Z,99.9
2018-08-31T03:59:29.902Z,99.9
2018-08-31T04:00:37.116Z,99.9
2018-08-31T04:01:44.065Z,99.9
2018-08-31T04:02:51.274Z,99.9
2018-08-31T04:03:58.490Z,99.9
2018-08-31T04:05:05.710Z,99.9
2018-08-31T04:06:12.641Z,99.9
2018-08-31T04:07:19.864Z,99.9
2018-08-31T04:08:27.082Z,99.9
2018-08-31T04:09:34.298Z,99.9
2018-08-31T04:10:41.233Z,99.9
2018-08-31T04:11:48.451Z,99.9
2018-08-31T04:12:55.669Z,99.9
2018-08-31T04:14:02.887Z,99.9
2018-08-31T04:15:09.933Z,99.9
2018-08-31T04:16:17.597Z,99.9
2018-08-31T04:17:24.815Z,99.9
2018-08-31T04:18:31.793Z,99.9
2018-08-31T04:19:39.012Z,99.9
2018-08-31T04:20:45.972Z,99.9
2018-08-31T04:21:53.175Z,99.9
2018-08-31T04:23:00.135Z,99.9
2018-08-31T04:24:07.354Z,99.9
2018-08-31T04:25:14.571Z,99.9
2018-08-31T04:26:21.789Z,99.9
2018-08-31T04:27:29.005Z,99.9
2018-08-31T04:28:36.227Z,99.9
2018-08-31T04:29:43.169Z,99.9
2018-08-31T04:30:50.106Z,99.9
2018-08-31T04:31:57.338Z,99.9
2018-08-31T04:33:04.551Z,99.9
2018-08-31T04:34:11.896Z,99.9
2018-08-31T04:35:19.216Z,99.9
2018-08-31T04:36:26.176Z,99.9
2018-08-31T04:37:33.119Z,99.9
2018-08-31T04:38:40.059Z,99.9
2018-08-31T04:39:47.285Z,99.9
2018-08-31T04:40:54.230Z,99.9
2018-08-31T04:42:00.905Z,99.9
2018-08-31T04:43:08.118Z,99.9
2018-08-31T04:44:15.330Z,99.9
2018-08-31T04:45:22.548Z,99.9
2018-08-31T04:46:29.488Z,99.9
2018-08-31T04:47:36.698Z,99.9
2018-08-31T04:48:43.913Z,99.9
2018-08-31T04:49:50.572Z,99.9
2018-08-31T04:50:57.799Z,99.9
2018-08-31T04:52:05.010Z,99.9
2018-08-31T04:53:11.958Z,99.9
2018-08-31T04:54:19.177Z,99.9
2018-08-31T04:55:26.395Z,99.9
2018-08-31T04:56:33.334Z,99.9
2018-08-31T04:57:39.778Z,99.9
2018-08-31T04:58:47.068Z,99.9
2018-08-31T04:59:54.123Z,99.9
2018-08-31T05:01:01.069Z,99.9
2018-08-31T05:02:08.294Z,99.9
2018-08-31T05:03:15.503Z,99.9
2018-08-31T05:04:22.724Z,99.9
2018-08-31T05:05:29.682Z,99.9
2018-08-31T05:06:36.899Z,99.9
2018-08-31T05:07:44.165Z,99.9
2018-08-31T05:08:51.381Z,99.9
2018-08-31T05:09:58.596Z,99.9
2018-08-31T05:11:05.821Z,99.9
2018-08-31T05:12:13.035Z,99.9
2018-08-31T05:13:20.254Z,99.9
2018-08-31T05:14:27.469Z,99.9
2018-08-31T05:15:34.418Z,99.9
2018-08-31T05:16:41.637Z,99.9
2018-08-31T05:17:48.848Z,99.9
2018-08-31T05:18:55.797Z,99.9
2018-08-31T05:20:03.011Z,99.9
2018-08-31T05:21:10.245Z,99.9
2018-08-31T05:22:17.478Z,99.9
2018-08-31T05:23:24.601Z,99.9
2018-08-31T05:24:31.822Z,99.9
2018-08-31T05:25:39.039Z,99.9
2018-08-31T05:26:46.251Z,99.9
2018-08-31T05:27:53.475Z,99.9
2018-08-31T05:29:00.687Z,99.9
2018-08-31T05:30:07.904Z,99.9
2018-08-31T05:31:15.120Z,99.9
2018-08-31T05:32:22.353Z,99.9
2018-08-31T05:33:29.574Z,99.9
2018-08-31T05:34:36.806Z,99.9
2018-08-31T05:35:43.743Z,99.9
2018-08-31T05:36:50.682Z,99.9
2018-08-31T05:37:57.622Z,99.9
2018-08-31T05:39:04.837Z,99.9
2018-08-31T05:40:12.055Z,99.9
2018-08-31T05:41:19.300Z,99.9
2018-08-31T05:42:26.515Z,99.9
2018-08-31T05:43:33.728Z,99.9
2018-08-31T05:44:40.943Z,99.9
2018-08-31T05:45:47.877Z,99.9
2018-08-31T05:46:55.096Z,99.9
2018-08-31T05:48:02.316Z,99.9
2018-08-31T05:49:09.556Z,99.9
2018-08-31T05:50:16.768Z,99.9
2018-08-31T05:51:23.705Z,99.9
2018-08-31T05:52:30.646Z,99.9
2018-08-31T05:53:37.881Z,99.9
2018-08-31T05:54:45.610Z,99.9
2018-08-31T05:55:52.841Z,99.9
2018-08-31T05:57:00.052Z,99.9
2018-08-31T05:58:07.288Z,99.9
2018-08-31T05:59:14.226Z,99.9
2018-08-31T06:00:21.444Z,99.9
2018-08-31T06:01:28.127Z,99.9
2018-08-31T06:02:35.360Z,99.9
2018-08-31T06:03:42.592Z,99.9
2018-08-31T06:04:49.807Z,99.9
2018-08-31T06:05:57.023Z,99.9
2018-08-31T06:07:04.239Z,99.9
2018-08-31T06:08:11.460Z,99.9
2018-08-31T06:09:18.677Z,99.9
2018-08-31T06:10:25.890Z,99.9
2018-08-31T06:11:33.108Z,99.9
2018-08-31T06:12:40.326Z,99.9
2018-08-31T06:13:47.545Z,99.9
2018-08-31T06:14:54.762Z,99.9
2018-08-31T06:16:01.980Z,99.9
2018-08-31T06:17:09.220Z,99.9
2018-08-31T06:18:16.434Z,99.9
2018-08-31T06:19:23.650Z,99.9
2018-08-31T06:20:30.599Z,99.9
2018-08-31T06:21:37.840Z,99.9
2018-08-31T06:22:45.060Z,99.9
2018-08-31T06:23:52.278Z,99.9
2018-08-31T06:24:59.216Z,99.9
2018-08-31T06:26:06.424Z,99.9
2018-08-31T06:27:13.777Z,99.9
2018-08-31T06:28:21.187Z,99.9
2018-08-31T06:29:28.407Z,99.9
2018-08-31T06:30:35.353Z,99.9
2018-08-31T06:31:42.583Z,99.9
2018-08-31T06:32:49.807Z,99.9
2018-08-31T06:33:57.122Z,99.9
2018-08-31T06:35:04.638Z,99.9
2018-08-31T06:36:11.859Z,99.9
2018-08-31T06:37:18.798Z,99.9
2018-08-31T06:38:25.760Z,99.9
2018-08-31T06:39:32.973Z,99.9
2018-08-31T06:40:39.944Z,99.9
2018-08-31T06:41:46.880Z,99.9
2018-08-31T06:42:54.119Z,99.9
2018-08-31T06:44:01.338Z,99.9
2018-08-31T06:45:08.584Z,99.9
2018-08-31T06:46:15.812Z,99.9
2018-08-31T06:47:23.020Z,99.9
2018-08-31T06:48:30.240Z,99.9
2018-08-31T06:49:37.460Z,99.9
2018-08-31T06:50:44.676Z,99.9
2018-08-31T06:51:51.892Z,99.9
2018-08-31T06:52:59.112Z,99.9
2018-08-31T06:54:06.347Z,99.9
2018-08-31T06:55:13.564Z,99.9
2018-08-31T06:56:20.787Z,99.9
2018-08-31T06:57:28.008Z,99.9
2018-08-31T06:58:35.235Z,99.9
2018-08-31T06:59:42.450Z,99.9
2018-08-31T07:00:49.719Z,99.9
2018-08-31T07:01:56.948Z,99.9
2018-08-31T07:03:04.185Z,99.9
2018-08-31T07:04:11.428Z,99.9
2018-08-31T07:05:18.648Z,99.9
2018-08-31T07:06:25.967Z,99.9
2018-08-31T07:07:33.186Z,99.9
2018-08-31T07:08:40.413Z,99.9
2018-08-31T07:09:47.636Z,99.9
2018-08-31T07:10:54.863Z,99.9
2018-08-31T07:12:01.844Z,99.9
2018-08-31T07:13:09.063Z,99.9
2018-08-31T07:14:16.304Z,99.9
2018-08-31T07:15:23.518Z,99.9
2018-08-31T07:16:30.741Z,99.9
2018-08-31T07:17:37.960Z,99.9
2018-08-31T07:18:45.176Z,99.9
2018-08-31T07:19:52.212Z,99.9
2018-08-31T07:20:59.696Z,99.9
2018-08-31T07:22:06.921Z,99.9
2018-08-31T07:23:14.159Z,99.9
2018-08-31T07:24:21.384Z,99.9
2018-08-31T07:25:28.633Z,99.9
2018-08-31T07:26:35.896Z,99.9
2018-08-31T07:27:43.230Z,99.9
2018-08-31T07:28:50.664Z,99.9
2018-08-31T07:29:57.888Z,99.9
2018-08-31T07:31:05.122Z,99.9
2018-08-31T07:32:12.065Z,99.9
2018-08-31T07:33:19.552Z,99.9
2018-08-31T07:34:26.772Z,99.9
2018-08-31T07:35:33.999Z,99.9
2018-08-31T07:36:41.216Z,99.9
2018-08-31T07:37:48.156Z,99.9
2018-08-31T07:38:55.385Z,99.9
2018-08-31T07:40:02.813Z,99.9
2018-08-31T07:41:10.045Z,99.9
2018-08-31T07:42:17.284Z,99.9
2018-08-31T07:43:24.561Z,99.9
2018-08-31T07:44:31.792Z,99.9
2018-08-31T07:45:38.741Z,99.9
2018-08-31T07:46:45.967Z,99.9
2018-08-31T07:47:53.255Z,99.9
2018-08-31T07:49:00.920Z,99.9
2018-08-31T07:50:08.151Z,99.9
2018-08-31T07:51:15.382Z,99.9
2018-08-31T07:52:22.355Z,99.9
2018-08-31T07:53:29.303Z,99.9
2018-08-31T07:54:36.258Z,99.9
2018-08-31T07:55:43.211Z,99.9
2018-08-31T07:56:50.432Z,99.9
2018-08-31T07:57:57.376Z,99.9
2018-08-31T07:59:04.596Z,99.9
2018-08-31T08:00:11.825Z,99.9
2018-08-31T08:01:18.788Z,99.9
2018-08-31T08:02:26.017Z,99.9
2018-08-31T08:03:32.976Z,99.9
2018-08-31T08:04:40.199Z,99.9
2018-08-31T08:05:46.869Z,99.9
2018-08-31T08:06:54.091Z,99.9
2018-08-31T08:08:01.054Z,99.9
2018-08-31T08:09:08.278Z,99.9
2018-08-31T08:10:14.968Z,99.9
2018-08-31T08:11:22.193Z,99.9
2018-08-31T08:12:29.425Z,99.9
2018-08-31T08:13:36.664Z,99.9
2018-08-31T08:14:43.914Z,99.9
2018-08-31T08:15:51.416Z,99.9
2018-08-31T08:16:58.075Z,99.9
2018-08-31T08:18:05.021Z,99.9
2018-08-31T08:19:11.936Z,99.9
2018-08-31T08:20:19.155Z,99.9
2018-08-31T08:21:26.104Z,99.9
2018-08-31T08:22:33.318Z,99.9
2018-08-31T08:23:40.539Z,99.9
2018-08-31T08:24:47.485Z,99.9
2018-08-31T08:25:54.697Z,99.9
2018-08-31T08:27:01.641Z,99.9
2018-08-31T08:28:08.869Z,99.9
2018-08-31T08:29:16.137Z,99.9
2018-08-31T08:30:23.356Z,99.9
2018-08-31T08:31:30.360Z,99.9
2018-08-31T08:32:37.591Z,99.9
2018-08-31T08:33:44.815Z,99.9
2018-08-31T08:34:52.041Z,99.9
2018-08-31T08:35:59.321Z,99.9
2018-08-31T08:37:06.902Z,99.9
2018-08-31T08:38:14.154Z,99.9
2018-08-31T08:39:21.377Z,99.9
2018-08-31T08:40:28.603Z,99.9
2018-08-31T08:41:35.823Z,99.9
2018-08-31T08:42:43.044Z,99.9
2018-08-31T08:43:49.991Z,99.9
2018-08-31T08:44:57.220Z,99.9
2018-08-31T08:46:04.433Z,99.9
2018-08-31T08:47:11.658Z,99.9
2018-08-31T08:48:18.918Z,99.9
2018-08-31T08:49:26.477Z,99.9
2018-08-31T08:50:33.693Z,99.9
2018-08-31T08:51:40.914Z,99.9
2018-08-31T08:52:48.129Z,99.9
2018-08-31T08:53:55.347Z,99.9
2018-08-31T08:55:02.596Z,99.9
2018-08-31T08:56:09.825Z,99.9
2018-08-31T08:57:16.779Z,99.9
2018-08-31T08:58:24.146Z,99.9
2018-08-31T08:59:31.706Z,99.9
2018-08-31T09:00:38.928Z,99.9
2018-08-31T09:01:46.167Z,99.9
2018-08-31T09:02:53.395Z,99.9
2018-08-31T09:04:00.623Z,99.9
2018-08-31T09:05:07.318Z,99.9
2018-08-31T09:06:14.528Z,99.9
2018-08-31T09:07:21.750Z,99.9
2018-08-31T09:08:28.975Z,99.9
2018-08-31T09:09:36.193Z,99.9
2018-08-31T09:10:43.452Z,99.9
2018-08-31T09:11:50.431Z,99.9
2018-08-31T09:12:57.863Z,99.9
2018-08-31T09:14:05.079Z,99.9
2018-08-31T09:15:12.303Z,99.9
2018-08-31T09:16:19.525Z,99.9
2018-08-31T09:17:26.476Z,99.9
2018-08-31T09:18:33.759Z,99.9
2018-08-31T09:19:41.436Z,99.9
2018-08-31T09:20:48.384Z,99.9
2018-08-31T09:21:55.331Z,99.9
2018-08-31T09:23:02.560Z,99.9
2018-08-31T09:24:09.776Z,99.9
2018-08-31T09:25:16.990Z,99.9
2018-08-31T09:26:24.221Z,99.9
2018-08-31T09:27:31.447Z,99.9
2018-08-31T09:28:38.685Z,99.9
2018-08-31T09:29:45.910Z,99.9
2018-08-31T09:30:53.146Z,99.9
2018-08-31T09:32:00.374Z,99.9
2018-08-31T09:33:07.595Z,99.9
2018-08-31T09:34:14.816Z,99.9
2018-08-31T09:35:21.754Z,99.9
2018-08-31T09:36:28.972Z,99.9
2018-08-31T09:37:36.212Z,99.9
2018-08-31T09:38:43.432Z,99.9
2018-08-31T09:39:50.380Z,99.9
2018-08-31T09:40:57.605Z,99.9
2018-08-31T09:42:04.836Z,99.9
2018-08-31T09:43:12.063Z,99.9
2018-08-31T09:44:19.290Z,99.9
2018-08-31T09:45:26.503Z,99.9
2018-08-31T09:46:33.720Z,99.9
2018-08-31T09:47:40.943Z,99.9
2018-08-31T09:48:48.174Z,99.9
2018-08-31T09:49:55.403Z,99.9
2018-08-31T09:51:02.353Z,99.9
2018-08-31T09:52:09.575Z,99.7
2018-08-31T09:53:16.523Z,99.9
2018-08-31T09:54:23.739Z,99.9
2018-08-31T09:55:30.959Z,99.9
2018-08-31T09:56:38.182Z,99.9
2018-08-31T09:57:45.405Z,99.9
2018-08-31T09:58:52.665Z,99.9
2018-08-31T09:59:59.881Z,99.9
2018-08-31T10:01:07.111Z,99.9
2018-08-31T10:02:14.326Z,99.9
2018-08-31T10:03:21.549Z,99.9
2018-08-31T10:04:28.768Z,99.9
2018-08-31T10:05:35.711Z,99.9
2018-08-31T10:06:42.932Z,99.9
2018-08-31T10:07:50.156Z,99.9
2018-08-31T10:08:57.372Z,99.7
2018-08-31T10:10:04.600Z,97.8
2018-08-31T10:11:11.810Z,98.5
2018-08-31T10:12:19.029Z,99.8
2018-08-31T10:13:26.353Z,99.9
2018-08-31T10:14:33.893Z,98.8
2018-08-31T10:15:40.835Z,99.9
2018-08-31T10:16:48.053Z,97.6
2018-08-31T10:17:55.272Z,97.6
2018-08-31T10:19:02.495Z,98.9
2018-08-31T10:20:09.713Z,96.1
2018-08-31T10:21:16.977Z,94.8
2018-08-31T10:22:23.921Z,92.5
2018-08-31T10:23:31.139Z,93.3
2018-08-31T10:24:38.081Z,94.5
2018-08-31T10:25:45.026Z,92.8
2018-08-31T10:26:52.274Z,85.8
2018-08-31T10:27:59.492Z,85.5
2018-08-31T10:29:06.728Z,84.4
2018-08-31T10:30:14.028Z,83.2
2018-08-31T10:31:21.695Z,70.3
2018-08-31T10:32:28.914Z,66
2018-08-31T10:33:36.125Z,67.3
2018-08-31T10:34:43.346Z,63.6
2018-08-31T10:35:50.564Z,64
2018-08-31T10:36:57.783Z,57.6
2018-08-31T10:38:05.003Z,61.8
2018-08-31T10:39:12.222Z,55.8
2018-08-31T10:40:19.521Z,51
2018-08-31T10:41:26.984Z,57.5
2018-08-31T10:42:34.198Z,51
2018-08-31T10:43:41.422Z,49.4
2018-08-31T10:44:48.636Z,42.2
2018-08-31T10:45:55.859Z,39.8
2018-08-31T10:47:03.084Z,49.3
2018-08-31T10:48:10.304Z,40.9
2018-08-31T10:49:17.522Z,40.6
2018-08-31T10:50:24.743Z,48.6
2018-08-31T10:51:31.425Z,43.1
2018-08-31T10:52:38.647Z,41.6
2018-08-31T10:53:45.865Z,38
2018-08-31T10:54:53.086Z,28.4
2018-08-31T10:56:00.312Z,34.7
2018-08-31T10:57:07.531Z,35.7
2018-08-31T10:58:14.747Z,28.4
2018-08-31T10:59:21.998Z,30.9
2018-08-31T11:00:29.217Z,34.6
2018-08-31T11:01:36.440Z,28.9
2018-08-31T11:02:43.656Z,28
2018-08-31T11:03:50.876Z,28.4
2018-08-31T11:04:58.093Z,25.6
2018-08-31T11:06:05.338Z,27.5
2018-08-31T11:07:12.557Z,27.4
2018-08-31T11:08:19.799Z,29.6
2018-08-31T11:09:27.021Z,24
2018-08-31T11:10:34.260Z,27.7
2018-08-31T11:11:41.509Z,25.8
2018-08-31T11:12:48.785Z,29.6
2018-08-31T11:13:56.582Z,25.6
2018-08-31T11:15:03.544Z,24.9
2018-08-31T11:16:10.813Z,27.2
2018-08-31T11:17:18.053Z,29.4
2018-08-31T11:18:25.274Z,30.6
2018-08-31T11:19:32.500Z,28.5
2018-08-31T11:20:39.729Z,28.2
2018-08-31T11:21:46.951Z,25
2018-08-31T11:22:54.176Z,27.3
2018-08-31T11:24:01.404Z,24
2018-08-31T11:25:08.668Z,25.4
2018-08-31T11:26:15.894Z,29.4
2018-08-31T11:27:23.125Z,24.5
2018-08-31T11:28:30.368Z,26.3
2018-08-31T11:29:37.592Z,25.1
2018-08-31T11:30:44.824Z,27.6
2018-08-31T11:31:51.497Z,28
2018-08-31T11:32:58.720Z,27
2018-08-31T11:34:05.958Z,22.3
2018-08-31T11:35:12.912Z,25.5
2018-08-31T11:36:20.137Z,24.1
2018-08-31T11:37:27.364Z,28.4
2018-08-31T11:38:34.599Z,23.4
2018-08-31T11:39:41.538Z,24.8
2018-08-31T11:40:48.769Z,25.5
2018-08-31T11:41:56.001Z,23.8
2018-08-31T11:43:02.944Z,24.4
2018-08-31T11:44:10.235Z,25.1
2018-08-31T11:45:17.447Z,24.4
2018-08-31T11:46:24.671Z,24
2018-08-31T11:47:31.888Z,21.7
2018-08-31T11:48:39.104Z,23.1
2018-08-31T11:49:46.331Z,24.4
2018-08-31T11:50:53.015Z,27.6
2018-08-31T11:52:00.238Z,21.8
2018-08-31T11:53:07.178Z,25.9
2018-08-31T11:54:14.417Z,21.6
2018-08-31T11:55:21.687Z,21.4
2018-08-31T11:56:29.440Z,24.4
2018-08-31T11:57:36.653Z,20.7
2018-08-31T11:58:43.881Z,22.1
2018-08-31T11:59:51.106Z,23.2
2018-08-31T12:00:58.348Z,22.8
2018-08-31T12:02:05.864Z,22.7
2018-08-31T12:03:13.790Z,20.1
2018-08-31T12:04:20.744Z,20.3
2018-08-31T12:05:27.971Z,23.1
2018-08-31T12:06:34.916Z,20.2
2018-08-31T12:07:42.180Z,22.2
2018-08-31T12:08:49.220Z,24.3
2018-08-31T12:09:56.445Z,23.8
2018-08-31T12:11:03.686Z,22.7
2018-08-31T12:12:10.909Z,24.3
2018-08-31T12:13:17.873Z,25
2018-08-31T12:14:25.095Z,22.8
2018-08-31T12:15:32.351Z,21.4
2018-08-31T12:16:39.573Z,24.1
2018-08-31T12:17:46.800Z,20.7
2018-08-31T12:18:54.027Z,21.3
2018-08-31T12:20:01.254Z,21.7
2018-08-31T12:21:08.503Z,25.6
2018-08-31T12:22:15.844Z,23.2
2018-08-31T12:23:23.098Z,24.1
2018-08-31T12:24:30.328Z,21.5
2018-08-31T12:25:37.549Z,21.3
2018-08-31T12:26:44.508Z,25.5
2018-08-31T12:27:51.728Z,26
2018-08-31T12:28:58.977Z,23.3
2018-08-31T12:30:06.205Z,21.2
2018-08-31T12:31:13.434Z,22.2
2018-08-31T12:32:20.654Z,22.1
2018-08-31T12:33:27.879Z,22.5
2018-08-31T12:34:35.104Z,24.7
2018-08-31T12:35:42.342Z,23.4
2018-08-31T12:36:49.582Z,24.1
2018-08-31T12:37:56.829Z,25.6
2018-08-31T12:39:04.055Z,24.3
2018-08-31T12:40:11.279Z,27.3
2018-08-31T12:41:18.504Z,24.2
2018-08-31T12:42:25.453Z,21.8
2018-08-31T12:43:32.679Z,25.4
2018-08-31T12:44:39.917Z,26.1
2018-08-31T12:45:47.145Z,23.4
2018-08-31T12:46:54.384Z,25.3
2018-08-31T12:48:01.602Z,25.1
2018-08-31T12:49:08.829Z,25.9
2018-08-31T12:50:15.796Z,23.9
2018-08-31T12:51:23.017Z,25.7
2018-08-31T12:52:29.974Z,26.4
2018-08-31T12:53:37.188Z,24.9
2018-08-31T12:54:44.420Z,25.9
2018-08-31T12:55:51.645Z,25.5
2018-08-31T12:56:58.871Z,25.3
2018-08-31T12:58:06.125Z,22.1
2018-08-31T12:59:13.359Z,22.2
2018-08-31T13:00:20.585Z,24
2018-08-31T13:01:27.813Z,24.1
2018-08-31T13:02:35.044Z,22.5
2018-08-31T13:03:42.266Z,23.7
2018-08-31T13:04:49.509Z,22.6
2018-08-31T13:05:56.734Z,24.4
2018-08-31T13:07:04.016Z,24.8
2018-08-31T13:08:11.774Z,25.1
2018-08-31T13:09:18.993Z,22.7
2018-08-31T13:10:26.223Z,23.6
2018-08-31T13:11:33.443Z,22.8
2018-08-31T13:12:40.659Z,21.8
2018-08-31T13:13:47.880Z,21.6
2018-08-31T13:14:55.103Z,23.5
2018-08-31T13:16:02.327Z,25.6
2018-08-31T13:17:09.548Z,24
2018-08-31T13:18:16.792Z,21
2018-08-31T13:19:24.026Z,19
2018-08-31T13:20:30.979Z,18.9
2018-08-31T13:21:38.192Z,19.9
2018-08-31T13:22:45.418Z,22.3
2018-08-31T13:23:52.646Z,21.8
2018-08-31T13:24:59.863Z,22.6
2018-08-31T13:26:07.121Z,23.3
2018-08-31T13:27:14.348Z,19.3
2018-08-31T13:28:21.573Z,18.9
2018-08-31T13:29:28.820Z,19.9
2018-08-31T13:30:36.054Z,21.2
2018-08-31T13:31:43.027Z,21.6
2018-08-31T13:32:50.253Z,21.9
2018-08-31T13:33:57.474Z,24.8
2018-08-31T13:35:04.697Z,24.3
2018-08-31T13:36:11.924Z,21.7
2018-08-31T13:37:19.148Z,21.9
2018-08-31T13:38:26.148Z,23.7
2018-08-31T13:39:33.676Z,22.4
2018-08-31T13:40:40.896Z,23.9
2018-08-31T13:41:48.110Z,17.5
2018-08-31T13:42:55.059Z,17.4
2018-08-31T13:44:02.456Z,21.8
2018-08-31T13:45:09.855Z,21.5
2018-08-31T13:46:16.814Z,19.3
2018-08-31T13:47:24.039Z,19.3
2018-08-31T13:48:31.273Z,18.8
2018-08-31T13:49:38.499Z,17.3
2018-08-31T13:50:45.456Z,18.4
2018-08-31T13:51:52.671Z,18.8
2018-08-31T13:52:59.912Z,17.7
2018-08-31T13:54:07.130Z,20.1
2018-08-31T13:55:14.358Z,18.7
2018-08-31T13:56:21.590Z,17.7
2018-08-31T13:57:28.831Z,18.7
2018-08-31T13:58:36.068Z,18.3
2018-08-31T13:59:43.296Z,22.7
2018-08-31T14:00:50.511Z,22.4
2018-08-31T14:01:57.732Z,22.4
2018-08-31T14:03:04.963Z,18.7
2018-08-31T14:04:12.180Z,18.7
2018-08-31T14:05:19.422Z,17.7
2018-08-31T14:06:26.649Z,19.6
2018-08-31T14:07:33.878Z,16.8
2018-08-31T14:08:41.105Z,20.8
2018-08-31T14:09:48.058Z,21.3
2018-08-31T14:10:55.273Z,21.1
2018-08-31T14:12:02.490Z,18.8
2018-08-31T14:13:09.446Z,17
2018-08-31T14:14:16.673Z,14.7
2018-08-31T14:15:23.618Z,16.2
2018-08-31T14:16:30.839Z,16.2
2018-08-31T14:17:38.059Z,16.4
2018-08-31T14:18:45.281Z,16.1
2018-08-31T14:19:52.226Z,17.1
2018-08-31T14:20:59.482Z,17.3
2018-08-31T14:22:06.818Z,18.5
2018-08-31T14:23:14.038Z,15.5
2018-08-31T14:24:20.986Z,15.5
2018-08-31T14:25:28.224Z,15.9
2018-08-31T14:26:35.447Z,16.4
2018-08-31T14:27:42.677Z,16.2
2018-08-31T14:28:49.897Z,17.7
2018-08-31T14:29:57.305Z,18.4
2018-08-31T14:31:05.117Z,18.5
2018-08-31T14:32:12.341Z,17.2
2018-08-31T14:33:19.575Z,18
2018-08-31T14:34:26.808Z,17.8
2018-08-31T14:35:33.773Z,17.2
2018-08-31T14:36:41.070Z,18.3
2018-08-31T14:37:48.986Z,17
2018-08-31T14:38:56.209Z,16.9
2018-08-31T14:40:03.440Z,19.4
2018-08-31T14:41:10.662Z,18.4
2018-08-31T14:42:17.882Z,19.2
2018-08-31T14:43:25.102Z,18.4
2018-08-31T14:44:32.338Z,16.8
2018-08-31T14:45:39.560Z,17.8
2018-08-31T14:46:46.783Z,18.6
2018-08-31T14:47:54.004Z,17.3
2018-08-31T14:49:01.230Z,18.4
2018-08-31T14:50:08.471Z,19.6
2018-08-31T14:51:15.698Z,17.6
2018-08-31T14:52:22.947Z,19.3
2018-08-31T14:53:29.900Z,18.5
2018-08-31T14:54:37.129Z,18.5
2018-08-31T14:55:44.353Z,18.4